Time;durP1;ratioP1;P1;durP2;ratioP2;P2;SDS_P1;SDS_P2;PMS_P1;PMS_P2;Temp;Humidity;BMP_temperature;BMP_pressure;BME280_temperature;BME280_humidity;BME280_pressure;Samples;Min_cycle;Max_cycle;Signal;HPM_P1;HPM_P2
2023/04/11 00:01:31;;;;;;;2.20;0.50;;;9.80;99.90;;;;;;6245749;22;20030;-87
2023/04/11 00:03:57;;;;;;;1.25;0.20;;;9.70;99.90;;;;;;6272670;22;20016;-87
2023/04/11 00:06:23;;;;;;;2.22;0.50;;;9.70;99.90;;;;;;6245520;22;20444;-86
2023/04/11 00:08:49;;;;;;;1.33;0.52;;;9.60;99.90;;;;;;6245751;22;20393;-88
2023/04/11 00:11:15;;;;;;;2.73;0.40;;;9.50;99.90;;;;;;6272698;22;20055;-90
2023/04/11 00:13:41;;;;;;;1.43;0.50;;;9.40;99.90;;;;;;6246781;22;20107;-92
2023/04/11 00:16:08;;;;;;;1.42;0.38;;;9.30;99.90;;;;;;6251524;22;20104;-93
2023/04/11 00:18:36;;;;;;;1.23;0.50;;;9.20;99.90;;;;;;6249329;22;20433;-95
2023/04/11 00:21:07;;;;;;;3.33;0.50;;;9.20;99.90;;;;;;6275274;22;20016;-89
2023/04/11 00:23:32;;;;;;;1.75;0.30;;;9.10;99.90;;;;;;6222453;22;20385;-88
2023/04/11 00:25:58;;;;;;;2.30;0.40;;;9.10;99.90;;;;;;6246440;22;20068;-89
2023/04/11 00:28:24;;;;;;;1.57;0.67;;;9.00;99.90;;;;;;6247310;22;20108;-91
2023/04/11 00:30:50;;;;;;;2.47;0.50;;;9.00;99.90;;;;;;6273408;22;20026;-92
2023/04/11 00:33:15;;;;;;;2.37;0.47;;;9.00;99.90;;;;;;6274030;22;20340;-91
2023/04/11 00:35:41;;;;;;;2.83;0.40;;;9.00;99.90;;;;;;6246332;22;20030;-91
2023/04/11 00:38:07;;;;;;;3.33;0.60;;;9.00;99.90;;;;;;6272882;22;20516;-89
2023/04/11 00:40:33;;;;;;;2.47;0.50;;;9.00;99.90;;;;;;6273105;22;20022;-93
2023/04/11 00:42:58;;;;;;;3.37;0.77;;;9.00;99.90;;;;;;6220881;22;20012;-91
2023/04/11 00:45:24;;;;;;;3.33;0.73;;;9.00;99.90;;;;;;6272772;22;20019;-85
2023/04/11 00:47:50;;;;;;;3.70;0.50;;;9.00;99.90;;;;;;6272982;22;20011;-89
2023/04/11 00:50:21;;;;;;;2.15;0.50;;;8.90;99.90;;;;;;6246837;22;20023;-90
2023/04/11 00:52:48;;;;;;;1.65;0.40;;;8.90;99.90;;;;;;6245933;22;20020;-89
2023/04/11 00:55:14;;;;;;;4.05;0.40;;;8.80;99.90;;;;;;6272623;22;20019;-81
2023/04/11 00:57:41;;;;;;;2.35;0.50;;;8.80;99.90;;;;;;6245572;22;20080;-83
2023/04/11 01:00:13;;;;;;;3.10;0.60;;;8.70;99.90;;;;;;6245685;22;20015;-86
2023/04/11 01:02:41;;;;;;;4.78;1.13;;;8.60;99.90;;;;;;6245178;22;20329;-88
2023/04/11 01:05:09;;;;;;;5.65;0.80;;;8.60;99.90;;;;;;6221147;22;20019;-85
2023/04/11 01:07:36;;;;;;;4.18;1.05;;;8.60;99.90;;;;;;6245720;22;20068;-90
2023/04/11 01:10:04;;;;;;;5.07;0.75;;;8.60;99.90;;;;;;6220202;22;20016;-87
2023/04/11 01:12:31;;;;;;;4.55;0.70;;;8.50;99.90;;;;;;6245359;22;20019;-87
2023/04/11 01:14:57;;;;;;;4.28;0.55;;;8.50;99.90;;;;;;6220701;22;20061;-89
2023/04/11 01:17:24;;;;;;;3.90;0.65;;;8.50;99.90;;;;;;6245746;22;20099;-87
2023/04/11 01:19:51;;;;;;;3.00;0.77;;;8.40;99.90;;;;;;6246589;22;20047;-87
2023/04/11 01:22:21;;;;;;;5.47;0.77;;;8.40;99.90;;;;;;6245023;22;20079;-81
2023/04/11 01:24:47;;;;;;;4.53;0.80;;;8.40;99.90;;;;;;6245248;22;20039;-87
2023/04/11 01:27:13;;;;;;;3.20;0.63;;;8.40;99.90;;;;;;6245527;22;20105;-87
2023/04/11 01:29:51;;;;;;;7.10;0.80;;;8.40;99.90;;;;;;6252725;22;20445;-87
2023/04/11 01:32:44;;;;;;;4.80;0.95;;;8.30;99.90;;;;;;6220197;22;20360;-89
2023/04/11 01:35:13;;;;;;;5.25;0.77;;;8.30;99.90;;;;;;6219439;22;20020;-87
2023/04/11 01:37:38;;;;;;;3.08;0.75;;;8.30;99.90;;;;;;6272066;22;20016;-84
2023/04/11 01:40:06;;;;;;;5.87;0.90;;;8.30;99.90;;;;;;6271875;22;20023;-81
2023/04/11 01:42:32;;;;;;;3.10;1.02;;;8.30;99.90;;;;;;6244906;22;20016;-85
2023/04/11 01:44:58;;;;;;;4.10;0.73;;;8.30;99.90;;;;;;6272195;22;20026;-87
2023/04/11 01:47:36;;;;;;;4.35;0.73;;;8.30;99.90;;;;;;6272480;22;20348;-85
2023/04/11 01:50:02;;;;;;;7.25;0.68;;;8.30;99.90;;;;;;6244899;22;20020;-85
2023/04/11 01:52:27;;;;;;;4.80;0.87;;;8.30;99.90;;;;;;6244689;22;20018;-85
2023/04/11 01:54:53;;;;;;;4.27;0.80;;;8.20;99.90;;;;;;6219821;22;20076;-80
2023/04/11 01:57:19;;;;;;;4.93;0.70;;;8.30;99.90;;;;;;6194959;22;20088;-90
2023/04/11 01:59:44;;;;;;;3.50;0.73;;;8.20;99.90;;;;;;6274164;22;20015;-89
2023/04/11 02:02:11;;;;;;;3.93;0.63;;;8.20;99.90;;;;;;6246667;22;20027;-82
2023/04/11 02:04:37;;;;;;;3.58;0.50;;;8.10;99.90;;;;;;6221039;22;20437;-88
2023/04/11 02:07:02;;;;;;;3.37;0.50;;;8.20;99.90;;;;;;6171418;22;20029;-83
2023/04/11 02:09:28;;;;;;;1.50;0.40;;;8.20;99.90;;;;;;6246240;22;20018;-82
2023/04/11 02:11:55;;;;;;;1.97;0.37;;;8.10;99.90;;;;;;6220927;22;20157;-87
2023/04/11 02:14:21;;;;;;;3.40;0.43;;;8.20;99.90;;;;;;6246212;22;20387;-86
2023/04/11 02:16:53;;;;;;;1.90;0.40;;;8.10;99.90;;;;;;6196199;22;20357;-81
2023/04/11 02:19:19;;;;;;;1.08;0.30;;;8.10;99.90;;;;;;6246086;22;20016;-89
2023/04/11 02:21:45;;;;;;;;;;;8.10;99.90;;;;;;6273981;22;20046;-85
2023/04/11 02:24:11;;;;;;;2.22;0.47;;;8.10;99.90;;;;;;6245840;22;19915;-90
2023/04/11 02:26:37;;;;;;;1.53;0.40;;;8.00;99.90;;;;;;6246261;22;20090;-88
2023/04/11 02:29:05;;;;;;;1.70;0.30;;;8.10;99.90;;;;;;6273010;22;20043;-85
2023/04/11 02:31:37;;;;;;;1.75;0.55;;;8.10;99.90;;;;;;6220796;22;20016;-86
2023/04/11 02:34:02;;;;;;;2.45;0.38;;;8.10;99.90;;;;;;6245420;22;20015;-87
2023/04/11 02:36:28;;;;;;;1.47;0.30;;;8.10;99.90;;;;;;6220483;22;20023;-80
2023/04/11 02:38:54;;;;;;;2.20;0.30;;;8.00;99.90;;;;;;6245922;22;20107;-85
2023/04/11 02:41:20;;;;;;;1.90;0.30;;;8.00;99.90;;;;;;6245867;22;20333;-85
2023/04/11 02:43:45;;;;;;;1.17;0.37;;;8.00;99.90;;;;;;6245735;22;20069;-90
2023/04/11 02:46:11;;;;;;;0.73;0.20;;;8.00;99.90;;;;;;6326953;22;20068;-82
2023/04/11 02:48:37;;;;;;;0.80;0.20;;;8.00;99.90;;;;;;6245782;22;20063;-79
2023/04/11 02:51:02;;;;;;;0.57;0.30;;;8.00;99.90;;;;;;6246033;22;20095;-85
2023/04/11 02:53:29;;;;;;;2.13;0.28;;;8.00;99.90;;;;;;6273011;22;20020;-85
2023/04/11 02:55:55;;;;;;;2.28;0.65;;;8.00;99.90;;;;;;6272740;22;20084;-84
2023/04/11 02:58:20;;;;;;;2.60;0.27;;;8.00;99.90;;;;;;6245693;22;20443;-87
2023/04/11 03:00:48;;;;;;;0.90;0.30;;;8.00;99.90;;;;;;6245967;22;20448;-86
2023/04/11 03:03:14;;;;;;;1.38;0.50;;;8.00;99.90;;;;;;6273015;22;20026;-85
2023/04/11 03:05:40;;;;;;;1.80;0.33;;;8.00;99.90;;;;;;6245754;22;20012;-81
2023/04/11 03:08:07;;;;;;;0.70;0.30;;;8.00;99.90;;;;;;6245521;22;20020;-87
2023/04/11 03:10:33;;;;;;;1.38;0.40;;;8.00;99.90;;;;;;6272240;22;20020;-82
2023/04/11 03:13:02;;;;;;;1.07;0.50;;;8.00;99.90;;;;;;6245886;22;20020;-86
2023/04/11 03:15:34;;;;;;;5.18;0.60;;;8.00;99.90;;;;;;6245617;22;20257;-80
2023/04/11 03:18:00;;;;;;;0.68;0.30;;;8.00;99.90;;;;;;6220665;22;20077;-89
2023/04/11 03:20:25;;;;;;;2.03;0.70;;;8.00;99.90;;;;;;6220401;22;20015;-87
2023/04/11 03:22:51;;;;;;;2.30;0.60;;;7.90;99.90;;;;;;6245660;22;20397;-82
2023/04/11 03:25:17;;;;;;;2.00;0.60;;;8.00;99.90;;;;;;6220183;22;20511;-86
2023/04/11 03:27:42;;;;;;;1.03;0.30;;;8.00;99.90;;;;;;6220305;22;20016;-89
2023/04/11 03:30:09;;;;;;;2.63;0.67;;;8.00;99.90;;;;;;6272341;22;20016;-87
2023/04/11 03:32:34;;;;;;;1.98;0.55;;;8.00;99.90;;;;;;6272535;22;20456;-90
2023/04/11 03:35:00;;;;;;;1.93;0.53;;;8.00;99.90;;;;;;6246035;22;20058;-87
2023/04/11 03:37:26;;;;;;;3.70;0.90;;;8.00;99.90;;;;;;6272897;22;20075;-87
2023/04/11 03:39:52;;;;;;;2.60;0.53;;;8.00;99.90;;;;;;6220710;22;20440;-86
2023/04/11 03:42:17;;;;;;;1.90;0.60;;;7.90;99.90;;;;;;6272648;22;20038;-88
2023/04/11 03:44:43;;;;;;;1.43;0.43;;;7.90;99.90;;;;;;6272458;22;20071;-81
2023/04/11 03:47:09;;;;;;;2.77;0.40;;;7.90;99.90;;;;;;6220904;22;20031;-86
2023/04/11 03:49:35;;;;;;;2.53;0.67;;;7.90;99.90;;;;;;6245620;22;20016;-81
2023/04/11 03:52:00;;;;;;;3.30;0.33;;;7.90;99.90;;;;;;6220137;22;20020;-86
2023/04/11 03:54:26;;;;;;;1.60;0.50;;;7.90;99.90;;;;;;6245680;22;20767;-84
2023/04/11 03:56:56;;;;;;;2.60;0.47;;;7.90;99.90;;;;;;6245217;22;20563;-86
2023/04/11 03:59:25;;;;;;;2.25;0.60;;;7.90;99.90;;;;;;6220972;22;20023;-85
2023/04/11 04:01:50;;;;;;;0.98;0.45;;;7.90;99.90;;;;;;6245836;22;20016;-90
2023/04/11 04:04:16;;;;;;;4.57;0.80;;;7.90;99.90;;;;;;6245719;22;20453;-88
2023/04/11 04:06:41;;;;;;;1.57;0.80;;;7.90;99.90;;;;;;6245789;22;20012;-90
2023/04/11 04:09:07;;;;;;;2.53;0.60;;;8.00;99.90;;;;;;6246189;22;20022;-90
2023/04/11 04:11:33;;;;;;;2.87;0.40;;;7.90;99.90;;;;;;6245637;22;20035;-90
2023/04/11 04:13:58;;;;;;;4.07;0.93;;;8.00;99.90;;;;;;6220445;22;20027;-87
2023/04/11 04:16:24;;;;;;;2.30;0.70;;;8.00;99.90;;;;;;6246212;22;20016;-91
2023/04/11 04:18:50;;;;;;;5.03;0.70;;;8.00;99.90;;;;;;6272520;22;20074;-88
2023/04/11 04:21:16;;;;;;;4.93;0.60;;;8.00;99.90;;;;;;6271653;22;20012;-89
2023/04/11 04:23:46;;;;;;;1.38;0.60;;;8.00;99.90;;;;;;6220459;22;20034;-81
2023/04/11 04:26:14;;;;;;;1.85;0.50;;;8.00;99.90;;;;;;6244815;22;20468;-88
2023/04/11 04:28:44;;;;;;;3.92;0.70;;;8.00;99.90;;;;;;6272431;22;20007;-89
2023/04/11 04:31:11;;;;;;;4.90;0.80;;;8.00;99.90;;;;;;6272031;22;20289;-89
2023/04/11 04:33:37;;;;;;;6.38;0.90;;;8.10;99.90;;;;;;6245511;22;20012;-90
2023/04/11 04:36:03;;;;;;;3.30;0.97;;;8.10;99.90;;;;;;6245205;22;20028;-84
2023/04/11 04:38:29;;;;;;;3.10;1.23;;;8.00;99.90;;;;;;6272668;22;20395;-83
2023/04/11 04:40:55;;;;;;;3.72;0.93;;;8.00;99.90;;;;;;6272551;22;20459;-86
2023/04/11 04:43:23;;;;;;;3.13;0.70;;;8.00;99.90;;;;;;6220320;22;20026;-88
2023/04/11 04:45:49;;;;;;;3.28;0.88;;;8.00;99.90;;;;;;6244705;22;20344;-88
2023/04/11 04:48:16;;;;;;;3.13;0.60;;;8.00;99.90;;;;;;6272198;22;20103;-80
2023/04/11 04:50:42;;;;;;;4.25;0.80;;;8.10;99.90;;;;;;6245344;22;20103;-83
2023/04/11 04:53:08;;;;;;;4.30;1.10;;;8.00;99.90;;;;;;6272601;22;20023;-88
2023/04/11 04:55:34;;;;;;;4.13;0.90;;;8.00;99.90;;;;;;6272328;22;20019;-84
2023/04/11 04:58:00;;;;;;;5.03;1.30;;;8.00;99.90;;;;;;6245024;22;20739;-86
2023/04/11 05:00:26;;;;;;;3.87;0.80;;;8.00;99.90;;;;;;6244524;22;20068;-88
2023/04/11 05:02:54;;;;;;;5.70;1.07;;;8.00;99.90;;;;;;6271938;22;20090;-83
2023/04/11 05:05:19;;;;;;;2.10;0.60;;;8.00;99.90;;;;;;6244767;22;20460;-86
2023/04/11 05:07:45;;;;;;;4.07;1.30;;;8.00;99.90;;;;;;6269755;22;20071;-83
2023/04/11 05:10:11;;;;;;;5.30;1.17;;;8.00;99.90;;;;;;6244867;22;20020;-84
2023/04/11 05:12:37;;;;;;;7.60;1.53;;;7.90;99.90;;;;;;6244708;22;20330;-92
2023/04/11 05:15:03;;;;;;;3.07;0.80;;;8.00;99.90;;;;;;6242796;22;20019;-81
2023/04/11 05:17:28;;;;;;;4.90;0.75;;;8.00;99.90;;;;;;6219303;22;20148;-86
2023/04/11 05:19:54;;;;;;;4.57;0.70;;;8.00;99.90;;;;;;6244559;22;20463;-86
2023/04/11 05:22:20;;;;;;;1.17;0.40;;;8.00;99.90;;;;;;6244712;22;20020;-82
2023/04/11 05:24:46;;;;;;;2.60;0.50;;;7.90;99.90;;;;;;6244619;22;20452;-86
2023/04/11 05:27:12;;;;;;;1.80;0.47;;;7.80;99.90;;;;;;6169201;22;20015;-87
2023/04/11 05:29:38;;;;;;;3.37;0.40;;;7.80;99.90;;;;;;6241926;22;20456;-87
2023/04/11 05:32:04;;;;;;;1.25;0.43;;;7.70;99.90;;;;;;6239391;22;20022;-87
2023/04/11 05:34:31;;;;;;;5.53;0.57;;;7.70;99.90;;;;;;6403752;22;20010;-85
2023/04/11 05:36:57;;;;;;;2.00;0.32;;;7.60;99.90;;;;;;6267006;22;20431;-83
2023/04/11 05:39:22;;;;;;;1.47;0.50;;;7.60;99.90;;;;;;6242368;22;20029;-82
2023/04/11 05:41:49;;;;;;;4.63;0.60;;;7.60;99.90;;;;;;6403693;22;20021;-86
2023/04/11 05:44:14;;;;;;;0.93;0.45;;;7.50;99.90;;;;;;6267465;22;20040;-83
2023/04/11 05:46:41;;;;;;;4.40;0.77;;;7.50;99.90;;;;;;6404323;22;20031;-83
2023/04/11 05:49:07;;;;;;;;;;;7.50;99.90;;;;;;6243267;22;20339;-85
2023/04/11 05:51:32;;;;;;;1.15;0.52;;;7.50;99.90;;;;;;6267644;22;19943;-84
2023/04/11 05:53:58;;;;;;;3.87;0.80;;;7.50;99.90;;;;;;6242580;22;20033;-84
2023/04/11 05:56:24;;;;;;;5.00;0.93;;;7.50;99.90;;;;;;6267874;22;20100;-84
2023/04/11 05:58:55;;;;;;;1.83;0.70;;;7.60;99.90;;;;;;6267239;22;20021;-84
2023/04/11 06:01:22;;;;;;;4.45;1.00;;;7.60;99.90;;;;;;6267347;22;20092;-84
2023/04/11 06:03:48;;;;;;;4.38;0.82;;;7.60;99.90;;;;;;6267632;22;20014;-84
2023/04/11 06:06:14;;;;;;;4.53;1.27;;;7.70;99.90;;;;;;6267547;22;20076;-82
2023/04/11 06:08:39;;;;;;;3.30;1.07;;;7.70;99.90;;;;;;6242101;22;20014;-85
2023/04/11 06:11:05;;;;;;;2.70;1.07;;;7.70;99.90;;;;;;6267727;22;20024;-86
2023/04/11 06:13:31;;;;;;;5.43;1.20;;;7.70;99.90;;;;;;6267173;22;20013;-86
2023/04/11 06:16:06;;;;;;;3.07;0.90;;;7.80;99.90;;;;;;6404025;22;20071;-87
2023/04/11 06:18:32;;;;;;;2.38;0.75;;;7.80;99.90;;;;;;6267790;22;20372;-86
2023/04/11 06:20:57;;;;;;;3.87;1.00;;;7.80;99.90;;;;;;6216912;22;20010;-88
2023/04/11 06:23:23;;;;;;;3.33;0.83;;;7.90;99.90;;;;;;6403464;22;20024;-87
2023/04/11 06:25:55;;;;;;;3.70;1.00;;;7.90;99.90;;;;;;6268018;22;20021;-89
2023/04/11 06:28:51;;;;;;;4.97;1.15;;;7.90;99.90;;;;;;6268230;22;20017;-87
2023/04/11 06:31:17;;;;;;;3.55;1.08;;;7.90;99.90;;;;;;6240866;22;20014;-88
2023/04/11 06:33:43;;;;;;;4.57;1.37;;;8.00;99.90;;;;;;6348826;22;20024;-90
2023/04/11 06:36:09;;;;;;;6.13;1.02;;;7.90;99.90;;;;;;6267747;22;20095;-86
2023/04/11 06:38:36;;;;;;;5.07;1.08;;;8.00;99.90;;;;;;6242591;22;20106;-87
2023/04/11 06:41:02;;;;;;;2.25;0.68;;;8.00;99.90;;;;;;6403149;22;20332;-84
2023/04/11 06:43:28;;;;;;;5.57;1.30;;;8.10;99.90;;;;;;6241880;22;20028;-84
2023/04/11 06:45:53;;;;;;;6.37;1.37;;;8.00;99.90;;;;;;6267359;22;20022;-84
2023/04/11 06:48:20;;;;;;;5.40;1.97;;;8.00;99.90;;;;;;6402963;22;20088;-83
2023/04/11 06:50:47;;;;;;;4.55;1.00;;;8.10;99.90;;;;;;6267027;22;20018;-85
2023/04/11 06:53:13;;;;;;;5.15;1.02;;;8.10;99.90;;;;;;6266984;22;20450;-83
2023/04/11 06:55:38;;;;;;;5.27;1.20;;;8.20;99.90;;;;;;6267401;22;20056;-82
2023/04/11 06:58:04;;;;;;;5.20;1.40;;;8.20;99.90;;;;;;6267726;22;20084;-83
2023/04/11 07:00:30;;;;;;;3.93;1.10;;;8.20;99.90;;;;;;6402969;22;20016;-82
2023/04/11 07:02:56;;;;;;;6.73;1.63;;;8.20;99.90;;;;;;6403147;22;20024;-85
2023/04/11 07:05:21;;;;;;;5.17;1.20;;;8.20;99.90;;;;;;6242473;22;20312;-84
2023/04/11 07:07:47;;;;;;;8.23;1.00;;;8.10;99.90;;;;;;6267544;22;20096;-83
2023/04/11 07:10:13;;;;;;;7.00;1.10;;;8.10;99.90;;;;;;6267403;22;20036;-83
2023/04/11 07:12:38;;;;;;;2.27;1.03;;;8.10;99.90;;;;;;6267465;22;20040;-82
2023/04/11 07:15:05;;;;;;;5.03;0.87;;;8.10;99.90;;;;;;6216666;22;20354;-83
2023/04/11 07:17:30;;;;;;;7.00;1.25;;;8.20;99.90;;;;;;6267305;22;20040;-83
2023/04/11 07:19:56;;;;;;;3.53;1.17;;;8.30;99.90;;;;;;6242331;22;20014;-82
2023/04/11 07:22:22;;;;;;;5.50;1.13;;;8.30;99.90;;;;;;6267372;22;20041;-84
2023/04/11 07:24:51;;;;;;;7.03;0.93;;;8.40;99.90;;;;;;6267076;22;20355;-83
2023/04/11 07:27:18;;;;;;;6.90;1.80;;;8.50;99.90;;;;;;6267049;22;20017;-83
2023/04/11 07:29:44;;;;;;;5.32;1.33;;;8.60;99.90;;;;;;6266867;22;20045;-81
2023/04/11 07:32:09;;;;;;;7.23;1.47;;;8.70;99.90;;;;;;6317262;22;20022;-83
2023/04/11 07:34:35;;;;;;;1.63;0.60;;;8.80;99.90;;;;;;6245257;22;20415;-83
2023/04/11 07:37:01;;;;;;;3.57;1.23;;;8.80;99.90;;;;;;6272027;22;20019;-82
2023/04/11 07:39:26;;;;;;;2.77;0.90;;;8.90;99.90;;;;;;6272408;22;20098;-82
2023/04/11 07:41:53;;;;;;;3.37;0.60;;;9.10;99.90;;;;;;6272321;22;20019;-84
2023/04/11 07:44:18;;;;;;;4.63;1.02;;;9.30;99.90;;;;;;6245169;22;20028;-82
2023/04/11 07:46:44;;;;;;;3.60;0.80;;;9.40;99.90;;;;;;6245228;22;20016;-82
2023/04/11 07:49:10;;;;;;;6.40;0.90;;;9.50;99.90;;;;;;6245172;22;20061;-82
2023/04/11 07:51:35;;;;;;;5.70;1.07;;;9.60;99.90;;;;;;6272152;22;20016;-82
2023/04/11 07:54:02;;;;;;;5.50;0.93;;;9.70;99.90;;;;;;6243711;22;20433;-83
2023/04/11 07:56:27;;;;;;;6.72;1.05;;;9.70;99.90;;;;;;6244949;22;20389;-84
2023/04/11 07:58:53;;;;;;;2.77;1.03;;;9.70;99.90;;;;;;6245584;22;20043;-82
2023/04/11 08:01:23;;;;;;;5.07;0.82;;;9.60;99.90;;;;;;6219959;22;20110;-83
2023/04/11 08:03:52;;;;;;;3.88;0.80;;;9.60;99.90;;;;;;6272226;22;20076;-81
2023/04/11 08:06:18;;;;;;;6.45;1.20;;;9.60;99.90;;;;;;6244939;22;20033;-82
2023/04/11 08:08:44;;;;;;;4.27;0.80;;;9.60;99.90;;;;;;6272182;22;20473;-84
2023/04/11 08:11:10;;;;;;;5.72;0.93;;;9.50;99.90;;;;;;6219706;22;20008;-84
2023/04/11 08:13:36;;;;;;;2.20;0.80;;;9.50;99.90;;;;;;6245073;22;20163;-85
2023/04/11 08:16:07;;;;;;;2.37;0.90;;;9.50;99.90;;;;;;6244889;22;20011;-84
2023/04/11 08:18:34;;;;;;;3.60;0.60;;;9.40;99.90;;;;;;6245126;22;20027;-81
2023/04/11 08:21:00;;;;;;;;;;;9.50;99.90;;;;;;6219242;22;20011;-82
2023/04/11 08:23:25;;;;;;;3.67;0.57;;;9.50;99.90;;;;;;6195094;22;19923;-81
2023/04/11 08:25:51;;;;;;;3.00;0.80;;;9.50;99.90;;;;;;6271855;22;20016;-81
2023/04/11 08:28:17;;;;;;;4.77;1.00;;;9.70;99.90;;;;;;6219508;22;20019;-83
2023/04/11 08:30:42;;;;;;;3.17;0.90;;;9.70;99.90;;;;;;6245078;22;20015;-82
2023/04/11 08:33:09;;;;;;;1.13;0.40;;;9.70;99.90;;;;;;6271851;22;20027;-80
2023/04/11 08:35:36;;;;;;;4.35;0.70;;;9.60;99.90;;;;;;6244827;22;20016;-83
2023/04/11 08:38:02;;;;;;;6.93;1.17;;;9.50;99.90;;;;;;6244864;22;20019;-84
2023/04/11 08:40:27;;;;;;;3.57;0.80;;;9.40;99.90;;;;;;6269930;22;20047;-82
2023/04/11 08:42:59;;;;;;;2.30;0.60;;;9.40;99.90;;;;;;6243483;22;20016;-84
2023/04/11 08:45:26;;;;;;;3.78;0.77;;;9.50;99.90;;;;;;6244366;22;20449;-82
2023/04/11 08:47:51;;;;;;;3.53;0.50;;;9.50;99.90;;;;;;6243960;22;20024;-83
2023/04/11 08:50:17;;;;;;;11.05;1.05;;;9.70;99.90;;;;;;6269814;22;20012;-82
2023/04/11 08:52:45;;;;;;;3.65;1.00;;;9.90;99.90;;;;;;6270896;22;20016;-83
2023/04/11 08:55:11;;;;;;;2.95;0.70;;;10.00;99.90;;;;;;6269868;22;20011;-83
2023/04/11 08:57:37;;;;;;;3.05;1.15;;;10.00;99.90;;;;;;6268292;22;20020;-83
2023/04/11 09:00:17;;;;;;;3.57;0.77;;;10.10;99.90;;;;;;6191450;22;20051;-84
2023/04/11 09:03:02;;;;;;;2.38;0.60;;;10.20;99.90;;;;;;6217148;22;20019;-81
2023/04/11 09:05:39;;;;;;;2.60;0.57;;;10.20;99.90;;;;;;6242597;22;20016;-83
2023/04/11 09:08:10;;;;;;;6.85;1.00;;;10.10;99.90;;;;;;6273678;22;20076;-83
2023/04/11 09:10:37;;;;;;;2.40;0.90;;;10.00;99.90;;;;;;6247882;22;20445;-84
2023/04/11 09:13:20;;;;;;;3.60;0.55;;;9.90;99.90;;;;;;6275089;22;20581;-82
2023/04/11 09:15:47;;;;;;;0.98;0.30;;;9.70;99.90;;;;;;6275253;22;20016;-82
2023/04/11 09:18:45;;;;;;;1.48;0.40;;;9.40;99.90;;;;;;6247813;22;20483;-82
2023/04/11 09:21:14;;;;;;;2.42;0.85;;;9.40;99.90;;;;;;6266358;22;20055;-85
2023/04/11 09:23:40;;;;;;;5.07;0.82;;;9.40;99.90;;;;;;6248226;22;20348;-84
2023/04/11 09:26:08;;;;;;;2.22;0.40;;;9.40;99.90;;;;;;6247791;22;20550;-84
2023/04/11 09:28:49;;;;;;;2.50;0.32;;;9.10;99.90;;;;;;6274684;22;20016;-83
2023/04/11 09:31:15;;;;;;;1.63;0.50;;;8.70;99.90;;;;;;6274859;22;20397;-86
2023/04/11 09:33:52;;;;;;;1.20;0.30;;;8.40;99.90;;;;;;6222423;22;20020;-87
2023/04/11 09:36:22;;;;;;;2.13;0.40;;;8.30;99.90;;;;;;6222192;22;20031;-80
2023/04/11 09:38:48;;;;;;;3.65;0.80;;;8.10;99.90;;;;;;6275004;22;20456;-82
2023/04/11 09:41:14;;;;;;;4.63;0.83;;;8.10;99.90;;;;;;6247848;22;20119;-82
2023/04/11 09:43:51;;;;;;;2.75;0.47;;;8.20;99.90;;;;;;6274887;22;20019;-82
2023/04/11 09:46:19;;;;;;;4.63;1.25;;;8.30;99.90;;;;;;6247461;22;20019;-81
2023/04/11 09:48:47;;;;;;;3.92;1.05;;;8.50;99.90;;;;;;6247553;22;20509;-86
2023/04/11 09:51:13;;;;;;;5.70;1.00;;;8.70;99.90;;;;;;6247699;22;20062;-86
2023/04/11 09:53:39;;;;;;;2.55;0.70;;;9.00;99.90;;;;;;6247677;22;20016;-83
2023/04/11 09:56:06;;;;;;;3.17;1.15;;;9.20;99.90;;;;;;6274845;22;20016;-85
2023/04/11 09:58:37;;;;;;;6.38;0.70;;;9.50;99.90;;;;;;6247679;22;20047;-88
2023/04/11 10:01:09;;;;;;;2.45;0.65;;;9.80;99.90;;;;;;6274960;22;20576;-88
2023/04/11 10:03:38;;;;;;;3.97;0.60;;;9.90;99.90;;;;;;6247801;22;20344;-84
2023/04/11 10:06:21;;;;;;;3.47;0.80;;;10.00;99.90;;;;;;6274720;22;20381;-82
2023/04/11 10:08:49;;;;;;;1.08;0.30;;;10.00;99.90;;;;;;6247468;22;20020;-83
2023/04/11 10:11:19;;;;;;;1.25;0.30;;;9.80;99.90;;;;;;6247453;22;20016;-83
2023/04/11 10:13:45;;;;;;;1.35;0.32;;;9.40;99.90;;;;;;6245245;22;20020;-84
2023/04/11 10:16:16;;;;;;;0.68;0.30;;;9.10;99.90;;;;;;6220310;22;20020;-83
2023/04/11 10:18:53;;;;;;;2.78;0.50;;;8.80;99.90;;;;;;6271837;22;20094;-83
2023/04/11 10:21:35;;;;;;;3.47;0.40;;;8.70;99.90;;;;;;6270964;22;20016;-82
2023/04/11 10:24:19;;;;;;;0.85;0.30;;;8.40;99.90;;;;;;6219954;22;20024;-87
2023/04/11 10:26:50;;;;;;;2.55;0.60;;;8.30;99.90;;;;;;6220163;22;20019;-82
2023/04/11 10:29:39;;;;;;;1.73;0.55;;;8.30;99.90;;;;;;6245443;22;20016;-81
2023/04/11 10:32:15;;;;;;;3.28;0.50;;;8.30;99.90;;;;;;6245257;22;20016;-85
2023/04/11 10:34:50;;;;;;;3.17;0.57;;;8.60;99.90;;;;;;6245491;22;20047;-82
2023/04/11 10:37:17;;;;;;;2.80;0.43;;;8.90;99.90;;;;;;6220081;22;20020;-83
2023/04/11 10:39:48;;;;;;;;;;;9.10;99.90;;;;;;6245557;22;20405;-84
2023/04/11 10:42:37;;;;;;;2.92;0.50;;;9.20;99.90;;;;;;6220208;22;20010;-83
2023/04/11 10:45:39;;;;;;;3.95;0.70;;;9.10;99.90;;;;;;6245248;22;20019;-83
2023/04/11 10:48:06;;;;;;;0.70;0.30;;;8.80;99.90;;;;;;6245311;22;20068;-83
2023/04/11 10:50:39;;;;;;;2.80;0.60;;;8.60;99.90;;;;;;6244971;22;20222;-82
2023/04/11 10:53:06;;;;;;;3.92;0.80;;;8.50;99.90;;;;;;6245300;22;20090;-81
2023/04/11 10:55:46;;;;;;;2.53;0.55;;;8.30;99.90;;;;;;6245442;22;20026;-84
2023/04/11 10:58:20;;;;;;;2.80;0.60;;;8.30;99.90;;;;;;6272120;22;20525;-84
2023/04/11 11:00:49;;;;;;;3.30;0.60;;;8.20;99.90;;;;;;6272363;22;20043;-83
2023/04/11 11:03:15;;;;;;;4.13;0.55;;;8.10;99.90;;;;;;6272500;22;20026;-82
2023/04/11 11:05:41;;;;;;;1.63;0.63;;;8.10;99.90;;;;;;6245281;22;20016;-82
2023/04/11 11:08:07;;;;;;;5.07;0.53;;;8.10;99.90;;;;;;6245264;22;20444;-82
2023/04/11 11:10:37;;;;;;;4.10;0.45;;;8.10;99.90;;;;;;6245436;22;20251;-83
2023/04/11 11:13:03;;;;;;;3.92;0.80;;;8.00;99.90;;;;;;6245750;22;20024;-84
2023/04/11 11:15:35;;;;;;;2.25;0.60;;;8.10;99.90;;;;;;6245164;22;20509;-84
2023/04/11 11:18:01;;;;;;;4.25;1.00;;;8.10;99.90;;;;;;6245131;22;20452;-83
2023/04/11 11:20:27;;;;;;;3.78;0.60;;;8.20;99.90;;;;;;6272456;22;20016;-82
2023/04/11 11:23:00;;;;;;;5.07;0.97;;;8.50;99.90;;;;;;6245341;22;20030;-81
2023/04/11 11:25:26;;;;;;;3.92;0.77;;;8.80;99.90;;;;;;6272649;22;20026;-83
2023/04/11 11:27:58;;;;;;;3.87;0.77;;;9.10;99.90;;;;;;6220045;22;20008;-84
2023/04/11 11:30:24;;;;;;;7.38;2.40;;;9.30;99.90;;;;;;6245012;22;20333;-86
2023/04/11 11:32:50;;;;;;;3.30;0.70;;;9.30;99.90;;;;;;6245058;22;20441;-82
2023/04/11 11:35:16;;;;;;;4.50;0.90;;;9.30;99.90;;;;;;6219900;22;20024;-83
2023/04/11 11:37:42;;;;;;;4.87;0.73;;;9.30;99.90;;;;;;6219829;22;20030;-83
2023/04/11 11:40:12;;;;;;;5.47;1.00;;;9.20;99.90;;;;;;6245240;22;20060;-82
2023/04/11 11:42:39;;;;;;;3.67;0.73;;;9.10;99.90;;;;;;6272281;22;20092;-84
2023/04/11 11:45:18;;;;;;;2.97;0.65;;;9.10;99.90;;;;;;6272224;22;20043;-83
2023/04/11 11:47:45;;;;;;;7.53;0.98;;;9.00;99.90;;;;;;6245041;22;20471;-83
2023/04/11 11:50:22;;;;;;;3.63;0.80;;;8.90;99.90;;;;;;6272445;22;20020;-83
2023/04/11 11:52:48;;;;;;;3.55;0.60;;;8.70;99.90;;;;;;6245210;22;20016;-83
2023/04/11 11:55:21;;;;;;;2.70;0.70;;;8.60;99.90;;;;;;6272293;22;20027;-83
2023/04/11 11:57:48;;;;;;;4.50;0.75;;;8.50;99.90;;;;;;6245073;22;20038;-87
2023/04/11 12:00:22;;;;;;;4.35;0.73;;;8.40;99.90;;;;;;6245180;22;20357;-85
2023/04/11 12:02:50;;;;;;;7.28;1.23;;;8.30;99.90;;;;;;6245351;22;20098;-87
2023/04/11 12:05:16;;;;;;;2.50;0.40;;;8.30;99.90;;;;;;6272352;22;20019;-86
2023/04/11 12:07:42;;;;;;;2.65;0.50;;;8.30;99.90;;;;;;6220131;22;20107;-86
2023/04/11 12:10:12;;;;;;;2.93;0.70;;;8.30;99.90;;;;;;6244947;22;20094;-85
2023/04/11 12:12:41;;;;;;;3.75;0.60;;;8.50;99.90;;;;;;6245195;22;20016;-86
2023/04/11 12:15:15;;;;;;;1.55;0.50;;;8.70;99.90;;;;;;6245067;22;20022;-85
2023/04/11 12:17:42;;;;;;;2.53;0.70;;;8.60;99.90;;;;;;6244879;22;20016;-83
2023/04/11 12:20:09;;;;;;;1.77;0.40;;;8.50;99.90;;;;;;6245067;22;20087;-84
2023/04/11 12:22:38;;;;;;;0.95;0.40;;;8.40;99.90;;;;;;6272135;22;20015;-86
2023/04/11 12:25:14;;;;;;;2.53;0.52;;;8.30;99.90;;;;;;6244898;22;20452;-88
2023/04/11 12:27:41;;;;;;;1.55;0.60;;;8.50;99.90;;;;;;6245183;22;20448;-88
2023/04/11 12:30:08;;;;;;;5.10;0.50;;;8.70;99.90;;;;;;6272169;22;20118;-84
2023/04/11 12:32:34;;;;;;;;;;;9.00;99.90;;;;;;6266635;22;20009;-85
2023/04/11 12:35:01;;;;;;;5.88;0.85;;;9.30;99.90;;;;;;6402045;22;20037;-84
2023/04/11 12:37:27;;;;;;;4.57;1.02;;;9.50;99.90;;;;;;6266663;22;20018;-87
2023/04/11 12:39:53;;;;;;;5.27;1.50;;;9.50;99.90;;;;;;6266632;22;20025;-86
2023/04/11 12:42:19;;;;;;;6.57;1.97;;;9.40;99.90;;;;;;6265794;22;20014;-83
2023/04/11 12:44:46;;;;;;;2.13;0.87;;;9.30;99.90;;;;;;6266347;22;20010;-81
2023/04/11 12:47:12;;;;;;;2.65;0.90;;;9.20;99.90;;;;;;6402147;22;20339;-81
2023/04/11 12:49:38;;;;;;;3.97;0.60;;;9.30;99.90;;;;;;6401981;22;20014;-82
2023/04/11 12:52:05;;;;;;;2.00;0.40;;;9.40;99.90;;;;;;6241435;22;20014;-83
2023/04/11 12:54:31;;;;;;;;;;;9.60;99.90;;;;;;6241563;22;20025;-83
2023/04/11 12:56:57;;;;;;;2.70;0.55;;;9.70;99.90;;;;;;6266559;22;19975;-81
2023/04/11 12:59:25;;;;;;;2.17;0.60;;;9.80;99.90;;;;;;6401329;22;20018;-83
2023/04/11 13:01:50;;;;;;;4.15;0.57;;;9.80;99.90;;;;;;6264568;22;20024;-84